sensor_id;sensor_type;location;lat;lon;timestamp;pressure;altitude;pressure_sealevel;temperature;humidity
23223;BME280;11780;13.904;100.620;2023-03-13T00:02:23;101372.75;;;30.11;67.34
23223;BME280;11780;13.904;100.620;2023-03-13T00:04:54;101375.50;;;30.11;66.69
23223;BME280;11780;13.904;100.620;2023-03-13T00:07:24;101376.34;;;30.12;67.08
23223;BME280;11780;13.904;100.620;2023-03-13T00:09:54;101378.00;;;30.13;67.08
23223;BME280;11780;13.904;100.620;2023-03-13T00:12:23;101378.78;;;30.13;67.50
23223;BME280;11780;13.904;100.620;2023-03-13T00:14:54;101377.34;;;30.16;67.49
23223;BME280;11780;13.904;100.620;2023-03-13T00:17:24;101376.56;;;30.15;67.54
23223;BME280;11780;13.904;100.620;2023-03-13T00:19:53;101373.28;;;30.13;67.40
23223;BME280;11780;13.904;100.620;2023-03-13T00:22:24;101375.72;;;30.15;67.20
23223;BME280;11780;13.904;100.620;2023-03-13T00:24:54;101385.34;;;30.17;67.22
23223;BME280;11780;13.904;100.620;2023-03-13T00:27:24;101396.47;;;30.12;67.12
23223;BME280;11780;13.904;100.620;2023-03-13T00:29:54;101397.78;;;30.15;67.31
23223;BME280;11780;13.904;100.620;2023-03-13T00:32:24;101402.19;;;30.16;67.06
23223;BME280;11780;13.904;100.620;2023-03-13T00:34:54;101404.75;;;30.12;67.10
23223;BME280;11780;13.904;100.620;2023-03-13T00:37:25;101403.22;;;30.20;67.21
23223;BME280;11780;13.904;100.620;2023-03-13T00:39:55;101407.63;;;30.21;66.91
23223;BME280;11780;13.904;100.620;2023-03-13T00:42:26;101417.88;;;30.20;67.16
23223;BME280;11780;13.904;100.620;2023-03-13T00:44:57;101408.44;;;30.21;66.94
23223;BME280;11780;13.904;100.620;2023-03-13T00:47:27;101418.66;;;30.21;67.32
23223;BME280;11780;13.904;100.620;2023-03-13T00:49:57;101408.75;;;30.20;67.16
23223;BME280;11780;13.904;100.620;2023-03-13T00:52:27;101416.22;;;30.19;67.49
23223;BME280;11780;13.904;100.620;2023-03-13T00:55:16;101422.34;;;30.16;67.16
23223;BME280;11780;13.904;100.620;2023-03-13T00:57:46;101425.38;;;30.15;67.42
23223;BME280;11780;13.904;100.620;2023-03-13T01:00:16;101424.25;;;30.16;67.79
23223;BME280;11780;13.904;100.620;2023-03-13T01:02:47;101423.97;;;30.17;67.25
23223;BME280;11780;13.904;100.620;2023-03-13T01:05:17;101419.06;;;30.14;67.28
23223;BME280;11780;13.904;100.620;2023-03-13T01:07:47;101409.88;;;30.19;67.49
23223;BME280;11780;13.904;100.620;2023-03-13T01:10:17;101414.59;;;30.18;67.35
23223;BME280;11780;13.904;100.620;2023-03-13T01:13:05;101405.47;;;30.18;67.03
23223;BME280;11780;13.904;100.620;2023-03-13T01:15:50;101421.50;;;30.16;67.14
23223;BME280;11780;13.904;100.620;2023-03-13T01:18:21;101415.38;;;30.19;67.07
23223;BME280;11780;13.904;100.620;2023-03-13T01:20:52;101426.16;;;30.20;66.97
23223;BME280;11780;13.904;100.620;2023-03-13T01:23:22;101434.19;;;30.17;66.87
23223;BME280;11780;13.904;100.620;2023-03-13T01:25:54;101443.81;;;30.19;66.70
23223;BME280;11780;13.904;100.620;2023-03-13T01:28:25;101442.38;;;30.22;66.53
23223;BME280;11780;13.904;100.620;2023-03-13T01:30:55;101460.38;;;30.19;66.20
23223;BME280;11780;13.904;100.620;2023-03-13T01:33:29;101466.09;;;30.23;66.95
23223;BME280;11780;13.904;100.620;2023-03-13T01:36:03;101479.06;;;30.22;66.48
23223;BME280;11780;13.904;100.620;2023-03-13T01:38:33;101496.38;;;30.28;66.46
23223;BME280;11780;13.904;100.620;2023-03-13T01:41:12;101492.25;;;30.26;66.38
23223;BME280;11780;13.904;100.620;2023-03-13T01:43:43;101495.13;;;30.20;66.75
23223;BME280;11780;13.904;100.620;2023-03-13T01:46:23;101501.44;;;30.21;66.66
23223;BME280;11780;13.904;100.620;2023-03-13T01:52:03;101513.22;;;30.27;66.12
23223;BME280;11780;13.904;100.620;2023-03-13T01:57:27;101521.28;;;30.23;65.77
23223;BME280;11780;13.904;100.620;2023-03-13T02:00:08;101518.31;;;30.19;65.20
23223;BME280;11780;13.904;100.620;2023-03-13T02:02:46;101510.78;;;30.25;65.91
23223;BME280;11780;13.904;100.620;2023-03-13T02:05:37;101515.25;;;30.21;64.86
23223;BME280;11780;13.904;100.620;2023-03-13T02:11:51;101524.84;;;30.23;65.33
23223;BME280;11780;13.904;100.620;2023-03-13T02:14:41;101528.66;;;30.28;64.90
23223;BME280;11780;13.904;100.620;2023-03-13T02:17:14;101524.78;;;30.29;64.95
23223;BME280;11780;13.904;100.620;2023-03-13T02:19:48;101527.34;;;30.25;64.81
23223;BME280;11780;13.904;100.620;2023-03-13T02:28:11;101560.13;;;30.27;64.66
23223;BME280;11780;13.904;100.620;2023-03-13T02:31:00;101560.97;;;30.27;64.63
23223;BME280;11780;13.904;100.620;2023-03-13T02:33:46;101553.81;;;30.26;64.22
23223;BME280;11780;13.904;100.620;2023-03-13T02:36:19;101555.47;;;30.27;64.11
23223;BME280;11780;13.904;100.620;2023-03-13T02:38:56;101562.09;;;30.26;63.96
23223;BME280;11780;13.904;100.620;2023-03-13T02:41:30;101551.34;;;30.25;63.80
23223;BME280;11780;13.904;100.620;2023-03-13T02:44:03;101554.41;;;30.23;63.60
23223;BME280;11780;13.904;100.620;2023-03-13T02:46:48;101566.50;;;30.27;63.74
23223;BME280;11780;13.904;100.620;2023-03-13T02:49:27;101554.63;;;30.27;63.24
23223;BME280;11780;13.904;100.620;2023-03-13T02:52:10;101551.88;;;30.27;63.15
23223;BME280;11780;13.904;100.620;2023-03-13T02:55:05;101562.63;;;30.28;62.82
23223;BME280;11780;13.904;100.620;2023-03-13T02:57:54;101571.69;;;30.29;62.60
23223;BME280;11780;13.904;100.620;2023-03-13T03:00:42;101572.00;;;30.27;62.73
23223;BME280;11780;13.904;100.620;2023-03-13T03:03:12;101564.84;;;30.26;62.68
23223;BME280;11780;13.904;100.620;2023-03-13T03:05:42;101567.31;;;30.28;62.79
23223;BME280;11780;13.904;100.620;2023-03-13T03:08:15;101562.84;;;30.32;62.63
23223;BME280;11780;13.904;100.620;2023-03-13T03:10:45;101561.47;;;30.29;62.35
23223;BME280;11780;13.904;100.620;2023-03-13T03:13:15;101563.63;;;30.32;62.27
23223;BME280;11780;13.904;100.620;2023-03-13T03:16:08;101565.28;;;30.33;62.40
23223;BME280;11780;13.904;100.620;2023-03-13T03:18:39;101568.88;;;30.34;62.17
23223;BME280;11780;13.904;100.620;2023-03-13T03:21:28;101563.03;;;30.35;61.86
23223;BME280;11780;13.904;100.620;2023-03-13T03:23:58;101562.72;;;30.37;61.60
23223;BME280;11780;13.904;100.620;2023-03-13T03:26:43;101558.34;;;30.36;61.45
23223;BME280;11780;13.904;100.620;2023-03-13T03:29:31;101544.25;;;30.37;61.39
23223;BME280;11780;13.904;100.620;2023-03-13T03:32:31;101542.00;;;30.40;61.70
23223;BME280;11780;13.904;100.620;2023-03-13T03:35:20;101538.66;;;30.43;61.75
23223;BME280;11780;13.904;100.620;2023-03-13T03:38:08;101532.00;;;30.44;60.75
23223;BME280;11780;13.904;100.620;2023-03-13T03:40:58;101526.19;;;30.45;60.77
23223;BME280;11780;13.904;100.620;2023-03-13T03:43:44;101523.41;;;30.45;60.95
23223;BME280;11780;13.904;100.620;2023-03-13T03:46:34;101512.38;;;30.45;60.45
23223;BME280;11780;13.904;100.620;2023-03-13T03:49:04;101514.81;;;30.47;60.75
23223;BME280;11780;13.904;100.620;2023-03-13T03:51:34;101512.88;;;30.47;60.50
23223;BME280;11780;13.904;100.620;2023-03-13T03:54:05;101513.41;;;30.49;60.43
23223;BME280;11780;13.904;100.620;2023-03-13T03:56:54;101509.28;;;30.47;59.60
23223;BME280;11780;13.904;100.620;2023-03-13T03:59:26;101504.00;;;30.50;59.03
23223;BME280;11780;13.904;100.620;2023-03-13T04:02:00;101496.00;;;30.49;59.11
23223;BME280;11780;13.904;100.620;2023-03-13T04:04:46;101495.41;;;30.52;59.28
23223;BME280;11780;13.904;100.620;2023-03-13T04:07:20;101483.56;;;30.51;58.27
23223;BME280;11780;13.904;100.620;2023-03-13T04:09:50;101477.22;;;30.51;58.37
23223;BME280;11780;13.904;100.620;2023-03-13T04:12:27;101471.91;;;30.55;58.23
23223;BME280;11780;13.904;100.620;2023-03-13T04:14:57;101461.97;;;30.53;57.81
23223;BME280;11780;13.904;100.620;2023-03-13T04:17:45;101460.88;;;30.55;58.32
23223;BME280;11780;13.904;100.620;2023-03-13T04:20:19;101449.53;;;30.56;57.96
23223;BME280;11780;13.904;100.620;2023-03-13T04:22:49;101430.22;;;30.56;57.74
23223;BME280;11780;13.904;100.620;2023-03-13T04:25:19;101431.03;;;30.57;58.17
23223;BME280;11780;13.904;100.620;2023-03-13T04:27:52;101432.38;;;30.59;57.67
23223;BME280;11780;13.904;100.620;2023-03-13T04:30:40;101433.50;;;30.58;57.87
23223;BME280;11780;13.904;100.620;2023-03-13T04:33:45;101418.56;;;30.59;57.84
23223;BME280;11780;13.904;100.620;2023-03-13T04:36:28;101411.09;;;30.60;58.28
23223;BME280;11780;13.904;100.620;2023-03-13T04:39:26;101402.00;;;30.59;58.45
23223;BME280;11780;13.904;100.620;2023-03-13T04:42:18;101401.69;;;30.61;57.89
23223;BME280;11780;13.904;100.620;2023-03-13T04:45:10;101398.09;;;30.60;58.82
23223;BME280;11780;13.904;100.620;2023-03-13T04:47:47;101390.31;;;30.62;58.50
23223;BME280;11780;13.904;100.620;2023-03-13T04:50:43;101384.00;;;30.62;58.39
23223;BME280;11780;13.904;100.620;2023-03-13T04:53:19;101373.75;;;30.62;58.33
23223;BME280;11780;13.904;100.620;2023-03-13T04:56:05;101363.22;;;30.64;58.56
23223;BME280;11780;13.904;100.620;2023-03-13T04:58:53;101372.34;;;30.65;58.46
23223;BME280;11780;13.904;100.620;2023-03-13T05:01:42;101369.25;;;30.66;58.59
23223;BME280;11780;13.904;100.620;2023-03-13T05:04:24;101359.06;;;30.67;58.82
23223;BME280;11780;13.904;100.620;2023-03-13T05:07:00;101361.81;;;30.67;58.35
23223;BME280;11780;13.904;100.620;2023-03-13T05:09:55;101357.91;;;30.68;58.20
23223;BME280;11780;13.904;100.620;2023-03-13T05:12:31;101348.81;;;30.67;58.20
23223;BME280;11780;13.904;100.620;2023-03-13T05:15:20;101346.56;;;30.70;57.96
23223;BME280;11780;13.904;100.620;2023-03-13T05:18:09;101337.16;;;30.71;58.06
23223;BME280;11780;13.904;100.620;2023-03-13T05:20:45;101326.09;;;30.71;58.22
23223;BME280;11780;13.904;100.620;2023-03-13T05:23:26;101326.41;;;30.69;57.81
23223;BME280;11780;13.904;100.620;2023-03-13T05:26:02;101321.38;;;30.71;57.70
23223;BME280;11780;13.904;100.620;2023-03-13T05:29:03;101313.94;;;30.72;57.32
23223;BME280;11780;13.904;100.620;2023-03-13T05:32:26;101300.63;;;30.74;57.95
23223;BME280;11780;13.904;100.620;2023-03-13T05:35:14;101284.38;;;30.72;57.89
23223;BME280;11780;13.904;100.620;2023-03-13T05:38:04;101269.94;;;30.75;57.51
23223;BME280;11780;13.904;100.620;2023-03-13T05:41:08;101263.28;;;30.76;56.80
23223;BME280;11780;13.904;100.620;2023-03-13T05:43:57;101264.94;;;30.77;56.93
23223;BME280;11780;13.904;100.620;2023-03-13T05:46:45;101247.22;;;30.78;56.79
23223;BME280;11780;13.904;100.620;2023-03-13T05:49:33;101238.63;;;30.80;56.51
23223;BME280;11780;13.904;100.620;2023-03-13T05:52:21;101243.03;;;30.81;56.58
23223;BME280;11780;13.904;100.620;2023-03-13T05:55:04;101241.09;;;30.81;56.97
23223;BME280;11780;13.904;100.620;2023-03-13T05:58:06;101242.72;;;30.82;57.23
23223;BME280;11780;13.904;100.620;2023-03-13T06:01:18;101234.72;;;30.81;56.83
23223;BME280;11780;13.904;100.620;2023-03-13T06:04:01;101233.59;;;30.82;57.06
23223;BME280;11780;13.904;100.620;2023-03-13T06:06:47;101225.66;;;30.80;58.22
23223;BME280;11780;13.904;100.620;2023-03-13T06:09:35;101218.16;;;30.81;57.35
23223;BME280;11780;13.904;100.620;2023-03-13T06:12:07;101217.66;;;30.79;57.77
23223;BME280;11780;13.904;100.620;2023-03-13T06:14:55;101216.22;;;30.81;58.31
23223;BME280;11780;13.904;100.620;2023-03-13T06:17:44;101209.25;;;30.84;58.06
23223;BME280;11780;13.904;100.620;2023-03-13T06:20:14;101205.38;;;30.85;57.39
23223;BME280;11780;13.904;100.620;2023-03-13T06:22:44;101197.38;;;30.83;58.04
23223;BME280;11780;13.904;100.620;2023-03-13T06:25:15;101195.13;;;30.86;57.68
23223;BME280;11780;13.904;100.620;2023-03-13T06:27:45;101184.91;;;30.86;57.45
23223;BME280;11780;13.904;100.620;2023-03-13T06:30:15;101192.38;;;30.86;57.87
23223;BME280;11780;13.904;100.620;2023-03-13T06:33:01;101177.75;;;30.85;58.22
23223;BME280;11780;13.904;100.620;2023-03-13T06:35:50;101181.81;;;30.88;57.71
23223;BME280;11780;13.904;100.620;2023-03-13T06:38:41;101178.78;;;30.89;57.58
23223;BME280;11780;13.904;100.620;2023-03-13T06:41:11;101176.00;;;30.89;57.21
23223;BME280;11780;13.904;100.620;2023-03-13T06:43:42;101171.59;;;30.88;57.79
23223;BME280;11780;13.904;100.620;2023-03-13T06:46:17;101160.06;;;30.86;57.61
23223;BME280;11780;13.904;100.620;2023-03-13T06:49:06;101142.03;;;30.89;57.20
23223;BME280;11780;13.904;100.620;2023-03-13T06:51:36;101147.25;;;30.90;57.15
23223;BME280;11780;13.904;100.620;2023-03-13T06:54:06;101145.63;;;30.89;57.87
23223;BME280;11780;13.904;100.620;2023-03-13T06:56:54;101142.03;;;30.89;57.76
23223;BME280;11780;13.904;100.620;2023-03-13T06:59:44;101138.97;;;30.90;57.01
23223;BME280;11780;13.904;100.620;2023-03-13T07:02:32;101135.38;;;30.90;57.66
23223;BME280;11780;13.904;100.620;2023-03-13T07:05:02;101125.97;;;30.91;56.84
23223;BME280;11780;13.904;100.620;2023-03-13T07:07:52;101130.34;;;30.92;56.57
23223;BME280;11780;13.904;100.620;2023-03-13T07:10:22;101123.69;;;30.93;56.92
23223;BME280;11780;13.904;100.620;2023-03-13T07:12:52;101117.84;;;30.94;56.71
23223;BME280;11780;13.904;100.620;2023-03-13T07:15:22;101110.41;;;30.95;56.36
23223;BME280;11780;13.904;100.620;2023-03-13T07:17:55;101102.09;;;30.95;56.05
23223;BME280;11780;13.904;100.620;2023-03-13T07:20:25;101096.25;;;30.96;56.66
23223;BME280;11780;13.904;100.620;2023-03-13T07:22:55;101090.72;;;30.96;56.21
23223;BME280;11780;13.904;100.620;2023-03-13T07:25:25;101080.81;;;30.95;56.72
23223;BME280;11780;13.904;100.620;2023-03-13T07:27:55;101076.91;;;30.96;56.27
23223;BME280;11780;13.904;100.620;2023-03-13T07:30:25;101079.69;;;30.96;56.01
23223;BME280;11780;13.904;100.620;2023-03-13T07:32:57;101089.09;;;30.95;56.51
23223;BME280;11780;13.904;100.620;2023-03-13T07:35:52;101083.41;;;30.92;56.52
23223;BME280;11780;13.904;100.620;2023-03-13T07:38:22;101070.88;;;30.94;56.63
23223;BME280;11780;13.904;100.620;2023-03-13T07:40:54;101064.56;;;30.94;56.76
23223;BME280;11780;13.904;100.620;2023-03-13T07:43:25;101065.69;;;30.93;56.48
23223;BME280;11780;13.904;100.620;2023-03-13T07:46:03;101070.09;;;30.94;56.67
23223;BME280;11780;13.904;100.620;2023-03-13T07:48:36;101052.69;;;30.93;56.55
23223;BME280;11780;13.904;100.620;2023-03-13T07:51:13;101046.84;;;30.95;57.06
23223;BME280;11780;13.904;100.620;2023-03-13T07:53:59;101050.41;;;30.95;56.75
23223;BME280;11780;13.904;100.620;2023-03-13T07:56:29;101044.91;;;30.95;56.34
23223;BME280;11780;13.904;100.620;2023-03-13T07:58:59;101046.84;;;30.95;56.74
23223;BME280;11780;13.904;100.620;2023-03-13T08:01:30;101044.59;;;30.97;56.05
23223;BME280;11780;13.904;100.620;2023-03-13T08:04:00;101053.69;;;30.97;56.45
23223;BME280;11780;13.904;100.620;2023-03-13T08:06:49;101046.53;;;30.96;57.18
23223;BME280;11780;13.904;100.620;2023-03-13T08:09:20;101037.13;;;30.97;56.43
23223;BME280;11780;13.904;100.620;2023-03-13T08:12:09;101039.88;;;30.97;56.41
23223;BME280;11780;13.904;100.620;2023-03-13T08:14:39;101041.00;;;30.96;56.46
23223;BME280;11780;13.904;100.620;2023-03-13T08:17:09;101040.50;;;30.94;56.42
23223;BME280;11780;13.904;100.620;2023-03-13T08:19:57;101034.69;;;30.96;56.65
23223;BME280;11780;13.904;100.620;2023-03-13T08:22:27;101030.59;;;30.93;56.77
23223;BME280;11780;13.904;100.620;2023-03-13T08:24:57;101032.22;;;30.94;57.29
23223;BME280;11780;13.904;100.620;2023-03-13T08:27:29;101028.66;;;30.94;56.95
23223;BME280;11780;13.904;100.620;2023-03-13T08:29:59;101026.19;;;30.92;57.41
23223;BME280;11780;13.904;100.620;2023-03-13T08:32:44;101024.56;;;30.91;57.21
23223;BME280;11780;13.904;100.620;2023-03-13T08:35:14;101019.25;;;30.95;57.06
23223;BME280;11780;13.904;100.620;2023-03-13T08:37:46;101014.00;;;30.93;57.13
23223;BME280;11780;13.904;100.620;2023-03-13T08:40:16;101021.66;;;30.96;56.62
23223;BME280;11780;13.904;100.620;2023-03-13T08:42:46;101024.44;;;30.96;56.75
23223;BME280;11780;13.904;100.620;2023-03-13T08:45:16;101017.78;;;30.97;56.61
23223;BME280;11780;13.904;100.620;2023-03-13T08:47:51;101026.06;;;30.97;57.08
23223;BME280;11780;13.904;100.620;2023-03-13T08:50:22;101023.31;;;30.97;56.88
23223;BME280;11780;13.904;100.620;2023-03-13T08:52:52;101017.78;;;30.97;56.10
23223;BME280;11780;13.904;100.620;2023-03-13T08:55:23;101023.81;;;30.99;56.48
23223;BME280;11780;13.904;100.620;2023-03-13T08:57:52;101022.16;;;30.98;56.77
23223;BME280;11780;13.904;100.620;2023-03-13T09:00:23;101022.50;;;30.97;57.47
23223;BME280;11780;13.904;100.620;2023-03-13T09:02:52;101020.22;;;30.99;56.90
23223;BME280;11780;13.904;100.620;2023-03-13T09:05:22;101015.34;;;30.96;57.26
23223;BME280;11780;13.904;100.620;2023-03-13T09:07:53;101022.81;;;30.95;57.03
23223;BME280;11780;13.904;100.620;2023-03-13T09:10:23;101029.16;;;30.96;57.33
23223;BME280;11780;13.904;100.620;2023-03-13T09:12:54;101028.31;;;30.95;57.51
23223;BME280;11780;13.904;100.620;2023-03-13T09:15:24;101039.38;;;30.95;57.32
23223;BME280;11780;13.904;100.620;2023-03-13T09:17:54;101037.75;;;30.94;57.50
23223;BME280;11780;13.904;100.620;2023-03-13T09:20:25;101041.00;;;30.96;56.98
23223;BME280;11780;13.904;100.620;2023-03-13T09:22:55;101039.88;;;30.97;57.01
23223;BME280;11780;13.904;100.620;2023-03-13T09:25:25;101035.97;;;30.98;57.31
23223;BME280;11780;13.904;100.620;2023-03-13T09:27:55;101035.19;;;30.98;57.13
23223;BME280;11780;13.904;100.620;2023-03-13T09:30:25;101034.03;;;30.99;56.97
23223;BME280;11780;13.904;100.620;2023-03-13T09:32:55;101034.03;;;30.99;57.11
23223;BME280;11780;13.904;100.620;2023-03-13T09:35:45;101030.47;;;30.98;56.83
23223;BME280;11780;13.904;100.620;2023-03-13T09:38:24;101044.28;;;30.98;56.73
23223;BME280;11780;13.904;100.620;2023-03-13T09:40:55;101040.38;;;30.99;56.77
23223;BME280;11780;13.904;100.620;2023-03-13T09:46:37;101037.63;;;30.99;57.10
23223;BME280;11780;13.904;100.620;2023-03-13T09:52:15;101040.19;;;30.96;57.51
23223;BME280;11780;13.904;100.620;2023-03-13T09:57:37;101044.59;;;30.97;56.72
23223;BME280;11780;13.904;100.620;2023-03-13T10:00:15;101040.19;;;30.96;57.21
23223;BME280;11780;13.904;100.620;2023-03-13T10:03:03;101045.41;;;30.97;57.14
23223;BME280;11780;13.904;100.620;2023-03-13T10:05:42;101041.00;;;30.96;57.38
23223;BME280;11780;13.904;100.620;2023-03-13T10:08:20;101051.75;;;30.98;56.92
23223;BME280;11780;13.904;100.620;2023-03-13T10:14:05;101049.00;;;30.98;56.94
23223;BME280;11780;13.904;100.620;2023-03-13T10:23:09;101060.03;;;30.98;56.80
23223;BME280;11780;13.904;100.620;2023-03-13T10:25:41;101054.00;;;30.96;57.10
23223;BME280;11780;13.904;100.620;2023-03-13T10:28:13;101054.81;;;30.96;57.63
23223;BME280;11780;13.904;100.620;2023-03-13T10:30:57;101062.31;;;30.96;57.76
23223;BME280;11780;13.904;100.620;2023-03-13T10:33:33;101069.25;;;30.93;57.66
23223;BME280;11780;13.904;100.620;2023-03-13T10:36:08;101076.41;;;30.94;57.98
23223;BME280;11780;13.904;100.620;2023-03-13T10:38:52;101086.66;;;30.94;57.93
23223;BME280;11780;13.904;100.620;2023-03-13T10:41:35;101093.00;;;30.94;57.67
23223;BME280;11780;13.904;100.620;2023-03-13T10:46:46;101104.03;;;30.94;57.87
23223;BME280;11780;13.904;100.620;2023-03-13T10:49:22;101102.41;;;30.93;57.54
23223;BME280;11780;13.904;100.620;2023-03-13T10:54:28;101099.00;;;30.96;57.38
23223;BME280;11780;13.904;100.620;2023-03-13T10:59:52;101115.91;;;30.95;57.92
23223;BME280;11780;13.904;100.620;2023-03-13T11:02:25;101116.22;;;30.93;57.83
23223;BME280;11780;13.904;100.620;2023-03-13T11:04:56;101114.28;;;30.94;57.69
23223;BME280;11780;13.904;100.620;2023-03-13T11:07:37;101110.41;;;30.95;57.84
23223;BME280;11780;13.904;100.620;2023-03-13T11:12:47;101117.66;;;30.91;57.94
23223;BME280;11780;13.904;100.620;2023-03-13T11:17:58;101116.88;;;30.90;57.19
23223;BME280;11780;13.904;100.620;2023-03-13T11:20:35;101118.00;;;30.89;57.94
23223;BME280;11780;13.904;100.620;2023-03-13T11:31:34;101121.88;;;30.88;57.55
23223;BME280;11780;13.904;100.620;2023-03-13T11:37:01;101125.16;;;30.90;57.37
23223;BME280;11780;13.904;100.620;2023-03-13T11:39:47;101125.16;;;30.90;57.35
23223;BME280;11780;13.904;100.620;2023-03-13T11:50:54;101127.09;;;30.90;57.03
23223;BME280;11780;13.904;100.620;2023-03-13T11:53:39;101124.31;;;30.90;57.07
23223;BME280;11780;13.904;100.620;2023-03-13T11:56:20;101125.16;;;30.90;56.59
23223;BME280;11780;13.904;100.620;2023-03-13T11:59:05;101122.69;;;30.89;56.53
23223;BME280;11780;13.904;100.620;2023-03-13T12:01:59;101127.41;;;30.88;56.37
23223;BME280;11780;13.904;100.620;2023-03-13T12:04:38;101129.97;;;30.84;56.92
23223;BME280;11780;13.904;100.620;2023-03-13T12:10:57;101137.63;;;30.88;56.90
23223;BME280;11780;13.904;100.620;2023-03-13T12:13:11;101141.53;;;30.87;56.50
23223;BME280;11780;13.904;100.620;2023-03-13T12:15:49;101142.34;;;30.87;56.69
23223;BME280;11780;13.904;100.620;2023-03-13T12:18:38;101143.16;;;30.88;56.09
23223;BME280;11780;13.904;100.620;2023-03-13T12:21:20;101144.78;;;30.89;55.89
23223;BME280;11780;13.904;100.620;2023-03-13T12:24:28;101136.00;;;30.87;56.03
23223;BME280;11780;13.904;100.620;2023-03-13T12:27:28;101144.50;;;30.90;55.78
23223;BME280;11780;13.904;100.620;2023-03-13T12:32:39;101147.25;;;30.90;55.82
23223;BME280;11780;13.904;100.620;2023-03-13T12:35:30;101161.06;;;30.90;56.08
23223;BME280;11780;13.904;100.620;2023-03-13T12:38:25;101154.72;;;30.90;55.92
23223;BME280;11780;13.904;100.620;2023-03-13T12:41:24;101162.19;;;30.89;56.15
23223;BME280;11780;13.904;100.620;2023-03-13T12:43:56;101171.28;;;30.90;55.94
23223;BME280;11780;13.904;100.620;2023-03-13T12:46:40;101176.31;;;30.88;56.63
23223;BME280;11780;13.904;100.620;2023-03-13T12:49:41;101183.78;;;30.87;56.42
23223;BME280;11780;13.904;100.620;2023-03-13T13:00:39;101212.53;;;30.86;56.56
23223;BME280;11780;13.904;100.620;2023-03-13T13:03:19;101213.16;;;30.83;57.03
23223;BME280;11780;13.904;100.620;2023-03-13T13:09:07;101218.34;;;30.84;56.84
23223;BME280;11780;13.904;100.620;2023-03-13T13:19:44;101196.56;;;30.83;56.99
23223;BME280;11780;13.904;100.620;2023-03-13T13:32:52;101223.88;;;30.84;55.66
23223;BME280;11780;13.904;100.620;2023-03-13T13:36:40;101229.19;;;30.95;55.72
23223;BME280;11780;13.904;100.620;2023-03-13T13:39:39;101238.69;;;30.89;55.77
23223;BME280;11780;13.904;100.620;2023-03-13T13:47:47;101246.81;;;30.85;54.43
23223;BME280;11780;13.904;100.620;2023-03-13T13:52:49;101247.41;;;30.82;54.81
23223;BME280;11780;13.904;100.620;2023-03-13T13:58:19;101262.75;;;30.88;54.60
23223;BME280;11780;13.904;100.620;2023-03-13T14:01:00;101255.53;;;30.78;54.99
23223;BME280;11780;13.904;100.620;2023-03-13T14:03:32;101246.81;;;30.85;54.43
23223;BME280;11780;13.904;100.620;2023-03-13T14:06:20;101248.16;;;30.74;54.71
23223;BME280;11780;13.904;100.620;2023-03-13T14:08:56;101260.72;;;30.80;54.25
23223;BME280;11780;13.904;100.620;2023-03-13T14:11:37;101259.13;;;30.65;54.76
23223;BME280;11780;13.904;100.620;2023-03-13T14:14:14;101264.75;;;30.74;54.46
23223;BME280;11780;13.904;100.620;2023-03-13T14:16:47;101261.47;;;30.72;54.39
23223;BME280;11780;13.904;100.620;2023-03-13T14:19:34;101264.09;;;30.77;54.82
23223;BME280;11780;13.904;100.620;2023-03-13T14:22:08;101276.00;;;30.63;54.81
23223;BME280;11780;13.904;100.620;2023-03-13T14:24:39;101273.84;;;30.60;54.50
23223;BME280;11780;13.904;100.620;2023-03-13T14:27:17;101277.53;;;30.70;54.67
23223;BME280;11780;13.904;100.620;2023-03-13T14:30:05;101273.63;;;30.71;54.94
23223;BME280;11780;13.904;100.620;2023-03-13T14:32:38;101278.56;;;30.74;55.14
23223;BME280;11780;13.904;100.620;2023-03-13T14:35:09;101280.19;;;30.75;55.46
23223;BME280;11780;13.904;100.620;2023-03-13T14:37:45;101281.69;;;30.81;55.22
23223;BME280;11780;13.904;100.620;2023-03-13T14:40:35;101285.47;;;30.85;55.33
23223;BME280;11780;13.904;100.620;2023-03-13T14:43:40;101277.81;;;30.82;55.34
23223;BME280;11780;13.904;100.620;2023-03-13T14:46:17;101284.84;;;30.88;55.42
23223;BME280;11780;13.904;100.620;2023-03-13T14:48:53;101276.34;;;30.84;55.52
23223;BME280;11780;13.904;100.620;2023-03-13T14:51:25;101273.91;;;30.83;55.46
23223;BME280;11780;13.904;100.620;2023-03-13T14:54:02;101268.81;;;30.76;55.63
23223;BME280;11780;13.904;100.620;2023-03-13T14:56:37;101262.47;;;30.76;55.30
23223;BME280;11780;13.904;100.620;2023-03-13T14:59:17;101268.31;;;30.74;55.22
23223;BME280;11780;13.904;100.620;2023-03-13T15:02:02;101269.75;;;30.72;55.48
23223;BME280;11780;13.904;100.620;2023-03-13T15:07:21;101272.69;;;30.75;55.19
23223;BME280;11780;13.904;100.620;2023-03-13T15:09:53;101273.91;;;30.83;56.12
23223;BME280;11780;13.904;100.620;2023-03-13T15:12:23;101271.03;;;30.88;56.32
23223;BME280;11780;13.904;100.620;2023-03-13T15:14:55;101274.78;;;30.92;56.37
23223;BME280;11780;13.904;100.620;2023-03-13T15:17:26;101274.31;;;30.90;56.11
23223;BME280;11780;13.904;100.620;2023-03-13T15:19:57;101270.00;;;30.98;56.31
23223;BME280;11780;13.904;100.620;2023-03-13T15:22:30;101264.06;;;30.91;56.32
23223;BME280;11780;13.904;100.620;2023-03-13T15:25:02;101262.63;;;30.93;56.06